Time;durP1;ratioP1;P1;durP2;ratioP2;P2;SDS_P1;SDS_P2;PMS_P1;PMS_P2;Temp;Humidity;BMP_temperature;BMP_pressure;BME280_temperature;BME280_humidity;BME280_pressure;Samples;Min_cycle;Max_cycle;Signal;HPM_P1;HPM_P2
2022/03/11 00:01:30;;;;;;;10.85;5.07;;;8.60;65.00;;;;;;6752951;88;21221;-78
2022/03/11 00:11:30;;;;;;;11.35;4.78;;;8.50;65.10;;;;;;6739241;88;20235;-78
2022/03/11 00:21:31;;;;;;;10.13;4.72;;;8.40;65.20;;;;;;6744393;88;20218;-77
2022/03/11 00:31:31;;;;;;;8.35;4.07;;;8.30;65.40;;;;;;6759025;87;20211;-78
2022/03/11 00:41:32;;;;;;;9.23;4.28;;;8.20;65.60;;;;;;6758434;88;20220;-77
2022/03/11 00:51:33;;;;;;;10.35;4.50;;;8.10;66.10;;;;;;6761787;88;20523;-78
2022/03/11 01:01:33;;;;;;;7.90;4.20;;;8.00;66.00;;;;;;6754366;88;20767;-78
2022/03/11 01:11:34;;;;;;;8.05;3.22;;;8.10;66.20;;;;;;6758953;88;20294;-78
2022/03/11 01:21:35;;;;;;;7.70;3.75;;;8.00;66.30;;;;;;6758707;88;20236;-79
2022/03/11 01:31:35;;;;;;;7.60;3.63;;;7.90;66.50;;;;;;6757222;88;20258;-77
2022/03/11 01:41:36;;;;;;;8.88;4.35;;;7.80;67.10;;;;;;6758371;88;20690;-78
2022/03/11 01:51:38;;;;;;;8.95;4.40;;;7.70;67.70;;;;;;6757364;88;20648;-78
2022/03/11 02:01:39;;;;;;;12.27;4.87;;;7.50;68.50;;;;;;6756630;88;20257;-78
2022/03/11 02:11:40;;;;;;;9.55;3.67;;;7.40;69.50;;;;;;6755155;88;20264;-77
2022/03/11 02:21:46;;;;;;;10.93;4.60;;;7.20;70.40;;;;;;6755086;88;20188;-78
2022/03/11 02:31:46;;;;;;;10.17;4.60;;;7.00;71.30;;;;;;6752052;88;20687;-77
2022/03/11 02:41:49;;;;;;;10.77;4.32;;;6.90;72.00;;;;;;6762342;87;20227;-77
2022/03/11 02:51:50;;;;;;;9.88;4.65;;;6.80;72.70;;;;;;6746048;88;20246;-77
2022/03/11 03:01:50;;;;;;;10.52;4.87;;;6.80;73.80;;;;;;6755485;88;20692;-77
2022/03/11 03:11:52;;;;;;;9.75;4.57;;;6.80;73.70;;;;;;6755894;88;20253;-77
2022/03/11 03:21:53;;;;;;;11.63;5.47;;;6.70;74.20;;;;;;6755393;88;20288;-77
2022/03/11 03:31:57;;;;;;;8.75;4.62;;;6.60;74.80;;;;;;6751578;88;20668;-78
2022/03/11 03:41:58;;;;;;;10.20;4.10;;;6.40;75.70;;;;;;6755631;88;20188;-78
2022/03/11 03:51:59;;;;;;;11.63;5.00;;;6.30;76.10;;;;;;6755383;88;20184;-77
2022/03/11 04:01:59;;;;;;;9.50;4.25;;;6.20;76.50;;;;;;6755386;88;20220;-79
2022/03/11 04:12:00;;;;;;;10.32;5.05;;;6.10;76.60;;;;;;6755549;88;20876;-77
2022/03/11 04:22:01;;;;;;;8.63;4.03;;;6.10;77.10;;;;;;6756457;88;20199;-77
2022/03/11 04:32:01;;;;;;;9.95;5.25;;;6.00;77.50;;;;;;6754495;88;20196;-77
2022/03/11 04:42:02;;;;;;;12.82;5.50;;;5.90;77.80;;;;;;6754798;88;20937;-77
2022/03/11 04:52:04;;;;;;;13.82;5.70;;;5.80;78.20;;;;;;6757083;88;20338;-77
2022/03/11 05:02:05;;;;;;;13.40;6.20;;;5.70;78.80;;;;;;6757670;88;20228;-77
2022/03/11 05:12:06;;;;;;;10.90;5.20;;;5.60;79.30;;;;;;6757539;88;20305;-77
2022/03/11 05:22:07;;;;;;;13.73;5.28;;;5.50;79.90;;;;;;6752930;88;20675;-77
2022/03/11 05:32:08;;;;;;;13.25;6.60;;;5.40;80.20;;;;;;6747848;77;20387;-74
2022/03/11 05:42:09;;;;;;;16.15;6.53;;;5.40;80.90;;;;;;6770343;87;20290;-75
2022/03/11 05:52:10;;;;;;;14.40;6.90;;;5.20;81.30;;;;;;6754527;87;20198;-75
2022/03/11 06:02:10;;;;;;;13.70;7.00;;;5.20;82.00;;;;;;6748965;87;20196;-75
2022/03/11 06:12:11;;;;;;;15.93;7.22;;;5.10;82.80;;;;;;6752056;88;20188;-74
2022/03/11 06:22:11;;;;;;;10.95;5.07;;;5.00;83.20;;;;;;6753371;88;20222;-75
2022/03/11 06:32:12;;;;;;;12.30;5.95;;;5.00;83.70;;;;;;6753074;87;20200;-74
2022/03/11 06:42:12;;;;;;;17.90;7.78;;;5.00;84.00;;;;;;6755348;87;20201;-74
2022/03/11 06:52:14;;;;;;;18.83;8.68;;;5.00;84.80;;;;;;6752471;87;20376;-74
2022/03/11 07:02:15;;;;;;;17.50;8.10;;;5.10;85.00;;;;;;6763024;87;20176;-75
2022/03/11 07:12:16;;;;;;;20.02;8.55;;;5.20;84.50;;;;;;6757618;87;20386;-75
2022/03/11 07:22:16;;;;;;;16.62;7.35;;;5.30;83.80;;;;;;6746233;87;20176;-75
2022/03/11 07:32:17;;;;;;;16.08;7.30;;;5.50;83.00;;;;;;6750400;87;20256;-75
2022/03/11 07:42:18;;;;;;;18.12;8.18;;;5.80;81.80;;;;;;6751214;87;20176;-75
2022/03/11 07:52:21;;;;;;;19.30;9.20;;;6.10;80.90;;;;;;6752183;88;20197;-73
2022/03/11 08:02:21;;;;;;;19.23;9.30;;;6.20;80.80;;;;;;6748559;87;20181;-74
2022/03/11 08:12:23;;;;;;;15.52;8.07;;;6.80;79.20;;;;;;6755113;87;21179;-74
2022/03/11 08:22:23;;;;;;;20.02;9.55;;;7.10;77.00;;;;;;6753518;87;20225;-74
2022/03/11 08:32:24;;;;;;;18.40;9.00;;;7.60;75.20;;;;;;6755173;87;20224;-74
2022/03/11 08:42:24;;;;;;;16.10;7.53;;;7.90;74.50;;;;;;6766361;87;20172;-74
2022/03/11 08:52:25;;;;;;;15.85;7.70;;;7.90;73.80;;;;;;6770584;87;20246;-74
2022/03/11 09:02:26;;;;;;;20.42;9.32;;;7.70;73.90;;;;;;6755339;87;20298;-74
2022/03/11 09:12:27;;;;;;;15.82;7.93;;;8.00;73.60;;;;;;6750883;87;20873;-74
2022/03/11 09:22:27;;;;;;;21.23;9.13;;;8.00;73.10;;;;;;6752785;87;20248;-74
2022/03/11 09:32:28;;;;;;;16.50;8.60;;;8.70;71.90;;;;;;6749584;87;20878;-74
2022/03/11 09:42:29;;;;;;;20.55;9.10;;;9.00;71.50;;;;;;6745057;87;20354;-73
2022/03/11 09:52:33;;;;;;;16.40;7.05;;;9.30;71.20;;;;;;6749042;87;20266;-74
2022/03/11 10:02:34;;;;;;;14.82;7.18;;;9.40;70.20;;;;;;6750027;87;20670;-74
2022/03/11 10:12:42;;;;;;;16.92;8.20;;;9.90;69.50;;;;;;6748320;87;20189;-74
2022/03/11 10:22:47;;;;;;;16.60;7.97;;;9.90;69.50;;;;;;6741075;87;20212;-73
2022/03/11 10:32:55;;;;;;;18.73;9.80;;;10.10;68.40;;;;;;6740232;87;20232;-74
2022/03/11 10:43:20;;;;;;;16.27;8.35;;;10.90;68.00;;;;;;6744803;87;20205;-74
2022/03/11 10:53:20;;;;;;;12.27;6.40;;;10.80;67.80;;;;;;6767876;87;20235;-73
2022/03/11 11:03:21;;;;;;;13.23;7.30;;;11.20;65.90;;;;;;6754711;87;20303;-73
2022/03/11 11:13:22;;;;;;;15.48;8.45;;;11.60;65.00;;;;;;6744881;87;20594;-73
2022/03/11 11:23:25;;;;;;;13.85;6.93;;;11.80;65.30;;;;;;6742493;88;20717;-73
2022/03/11 11:33:25;;;;;;;18.95;9.35;;;12.10;63.90;;;;;;6745486;87;20259;-75
2022/03/11 11:43:30;;;;;;;19.25;7.72;;;13.00;63.70;;;;;;6743113;87;20640;-74
2022/03/11 11:53:42;;;;;;;15.60;8.55;;;12.30;63.00;;;;;;6745140;87;20634;-74
2022/03/11 12:03:49;;;;;;;18.98;9.23;;;12.70;63.40;;;;;;6747891;87;20227;-74
2022/03/11 12:14:01;;;;;;;18.77;9.20;;;13.30;62.20;;;;;;6732791;88;20322;-75
2022/03/11 12:24:43;;;;;;;17.10;9.38;;;13.60;61.90;;;;;;6728594;88;20193;-74
2022/03/11 12:34:47;;;;;;;17.75;9.10;;;13.80;61.60;;;;;;6747605;88;20188;-76
2022/03/11 12:44:48;;;;;;;17.27;9.55;;;13.90;61.50;;;;;;6743876;88;20248;-75
2022/03/11 12:54:48;;;;;;;16.08;7.97;;;14.70;61.10;;;;;;6747126;88;20286;-74
2022/03/11 13:04:49;;;;;;;16.40;8.50;;;15.10;59.10;;;;;;6748215;88;20373;-74
2022/03/11 13:15:11;;;;;;;18.30;8.95;;;15.40;58.70;;;;;;6743492;88;20224;-74
2022/03/11 13:25:12;;;;;;;16.55;9.43;;;15.60;58.60;;;;;;6746254;87;20278;-74
2022/03/11 13:35:26;;;;;;;16.98;8.48;;;16.10;57.80;;;;;;6749862;88;20378;-74
2022/03/11 13:45:36;;;;;;;14.43;8.55;;;15.80;57.90;;;;;;6752787;87;20216;-74
2022/03/11 13:55:38;;;;;;;19.67;10.07;;;15.60;57.80;;;;;;6745970;88;20214;-74
2022/03/11 14:05:43;;;;;;;15.43;8.73;;;16.10;57.80;;;;;;6747131;87;20214;-74
2022/03/11 14:15:47;;;;;;;17.80;9.20;;;16.40;56.60;;;;;;6747979;87;20263;-77
2022/03/11 14:25:48;;;;;;;15.85;8.52;;;16.70;56.30;;;;;;6746109;87;21873;-74
2022/03/11 14:35:49;;;;;;;16.40;8.23;;;16.00;56.40;;;;;;6740105;87;20677;-73
2022/03/11 14:45:51;;;;;;;17.58;9.13;;;15.70;56.50;;;;;;6766255;87;20189;-75
2022/03/11 14:55:52;;;;;;;20.77;9.43;;;15.40;57.30;;;;;;6742671;87;20180;-74
2022/03/11 15:05:52;;;;;;;21.05;9.10;;;15.20;57.10;;;;;;6742554;87;20237;-74
2022/03/11 15:15:53;;;;;;;14.00;7.78;;;15.20;57.40;;;;;;6741905;88;20259;-74
2022/03/11 15:25:53;;;;;;;17.33;9.18;;;15.00;57.50;;;;;;6747445;87;20319;-74
2022/03/11 15:35:54;;;;;;;16.67;8.77;;;15.10;57.70;;;;;;6747691;87;20319;-73
2022/03/11 15:45:57;;;;;;;15.40;8.15;;;15.50;57.50;;;;;;6743279;87;20203;-74
2022/03/11 15:55:57;;;;;;;15.23;8.73;;;14.70;58.30;;;;;;6745315;87;20191;-74
2022/03/11 16:05:58;;;;;;;16.25;8.45;;;14.50;58.80;;;;;;6740909;87;20196;-76
2022/03/11 16:15:58;;;;;;;14.05;8.40;;;13.90;59.80;;;;;;6745836;87;20340;-75
2022/03/11 16:25:59;;;;;;;13.10;7.18;;;13.50;60.30;;;;;;6747799;87;20243;-74
2022/03/11 16:35:59;;;;;;;17.62;7.78;;;13.00;60.60;;;;;;6753869;87;20195;-74
2022/03/11 16:46:02;;;;;;;15.48;7.68;;;12.80;61.10;;;;;;6750038;87;20288;-75
2022/03/11 16:56:03;;;;;;;16.20;7.45;;;12.60;61.50;;;;;;6747805;88;20793;-76
2022/03/11 17:06:03;;;;;;;13.43;7.25;;;12.40;61.30;;;;;;6748117;88;20234;-74
2022/03/11 17:16:04;;;;;;;14.55;6.82;;;12.30;61.40;;;;;;6766427;87;20675;-75
2022/03/11 17:26:05;;;;;;;13.85;7.07;;;12.10;61.40;;;;;;6766052;87;20180;-76
2022/03/11 17:36:05;;;;;;;16.17;6.90;;;12.00;61.90;;;;;;6763297;87;20164;-76
2022/03/11 17:46:07;;;;;;;15.27;8.50;;;11.80;62.20;;;;;;6766955;87;20273;-77
2022/03/11 17:56:10;;;;;;;14.15;7.03;;;11.60;62.40;;;;;;6766138;87;20184;-75
2022/03/11 18:06:11;;;;;;;13.32;6.62;;;11.50;62.30;;;;;;6764922;87;20714;-77
2022/03/11 18:16:23;;;;;;;10.55;5.78;;;11.50;62.40;;;;;;6772578;87;20199;-76
2022/03/11 18:26:35;;;;;;;14.90;8.07;;;11.40;62.40;;;;;;6772716;87;20176;-77
2022/03/11 18:36:39;;;;;;;18.42;10.00;;;11.20;62.70;;;;;;6768312;87;20188;-76
2022/03/11 18:46:39;;;;;;;15.27;8.00;;;11.20;62.50;;;;;;6758007;87;20168;-76
2022/03/11 18:56:43;;;;;;;14.43;7.20;;;11.30;63.10;;;;;;6781275;87;20223;-76
2022/03/11 19:06:44;;;;;;;17.73;7.35;;;11.10;62.80;;;;;;6765486;87;20481;-76
2022/03/11 19:16:44;;;;;;;15.23;7.43;;;10.90;63.10;;;;;;6770871;87;20216;-76
2022/03/11 19:26:48;;;;;;;11.43;6.03;;;10.90;63.10;;;;;;6775834;87;20185;-78
2022/03/11 19:36:49;;;;;;;14.63;7.20;;;10.90;62.70;;;;;;6775222;87;20557;-76
2022/03/11 19:46:50;;;;;;;12.20;6.60;;;10.90;62.20;;;;;;6777020;87;20196;-78
2022/03/11 19:56:50;;;;;;;12.48;6.70;;;10.90;61.70;;;;;;6774494;87;20296;-77
2022/03/11 20:06:57;;;;;;;11.32;6.12;;;10.80;61.30;;;;;;6782558;87;20999;-76
2022/03/11 20:16:58;;;;;;;15.45;5.90;;;10.70;61.00;;;;;;6770819;87;20175;-74
2022/03/11 20:26:59;;;;;;;10.48;5.45;;;10.70;60.50;;;;;;6767374;87;20152;-74
2022/03/11 20:36:59;;;;;;;11.80;5.35;;;10.70;60.00;;;;;;6760023;87;20337;-74
2022/03/11 20:47:01;;;;;;;12.02;5.45;;;10.70;59.80;;;;;;6759789;87;20219;-74
2022/03/11 20:57:02;;;;;;;12.90;5.55;;;10.60;59.90;;;;;;6762834;87;20198;-75
2022/03/11 21:07:04;;;;;;;9.65;4.95;;;10.50;59.80;;;;;;6761961;87;20188;-73
2022/03/11 21:17:05;;;;;;;9.20;4.70;;;10.40;59.50;;;;;;6759727;87;20172;-74
2022/03/11 21:27:05;;;;;;;9.73;4.60;;;10.40;58.90;;;;;;6764015;87;20220;-73
2022/03/11 21:37:06;;;;;;;8.40;4.43;;;10.40;58.60;;;;;;6765251;87;20200;-72
2022/03/11 21:47:06;;;;;;;9.27;4.70;;;10.20;58.40;;;;;;6763590;87;20201;-72
2022/03/11 21:57:10;;;;;;;6.37;3.85;;;10.20;58.50;;;;;;6758529;87;20201;-74
2022/03/11 22:07:10;;;;;;;11.45;4.32;;;10.30;57.40;;;;;;6763805;87;20204;-72
2022/03/11 22:17:12;;;;;;;9.70;4.50;;;10.30;57.20;;;;;;6768969;87;20209;-74
2022/03/11 22:27:12;;;;;;;9.77;4.25;;;10.20;57.00;;;;;;6767703;87;20224;-72
2022/03/11 22:37:13;;;;;;;9.82;4.50;;;10.20;56.90;;;;;;6761451;87;20216;-73
2022/03/11 22:47:14;;;;;;;9.60;4.35;;;10.10;56.60;;;;;;6760855;87;20226;-71
2022/03/11 22:57:15;;;;;;;11.30;4.12;;;10.20;56.30;;;;;;6763519;87;20208;-74
2022/03/11 23:17:37;;;;;;;8.95;3.87;;;10.10;56.30;;;;;;6765513;87;20180;-74
2022/03/11 23:37:41;;;;;;;7.32;4.47;;;10.00;56.00;;;;;;6786833;87;20714;-79
2022/03/11 23:47:44;;;;;;;8.00;3.70;;;10.00;56.00;;;;;;6774590;87;20229;-79
2022/03/11 23:57:45;;;;;;;11.70;4.03;;;9.90;55.90;;;;;;6789190;87;20175;-79
